TAR745 EDDH-LEPA
Flight info
| Callsign | TAR745 |
|---|---|
| Flight time | 2h 15m |
| Altitude | 38000 |
| Route | HABFU1G HABFU Y348 DOMEG DCT LIRSU DCT LIMGO/N0434F370 N852 SUTAL DCT GTQ DCT POGOL DCT LASAT DCT MOROK DCT GILIR DCT GEVEA DCT INCUS DCT BALSI DCT RETNO DCT TUPOX DCT MTG DCT DIVKO DCT VATIR N852 PIVUS DCT BODEQ N852 VERSO DCT LUNIK |
| Aircraft | A320/M-SDE3FGHIRWY/LB1 |
Departure
| Time | 2026-04-20 16:21 |
|---|---|
| Airport | Hamburg Helmut Schmidt Airport (EDDH) |
Arrival
| Time | 2026-04-20 18:36 |
|---|---|
| Airport | Palma de Mallorca Airport (LEPA) |
| Time | Latitude | Longitude | Altitude | Speed | Heading |
|---|---|---|---|---|---|
| 2026-04-20 15:45 | 53.63247 | 10.00358 | 51 ft | 0 kts | 88° |
| 2026-04-20 16:13 | 53.63247 | 10.00340 | 51 ft | 4 kts | 89° |
| 2026-04-20 16:13 | 53.63248 | 10.00295 | 51 ft | 4 kts | 100° |
| 2026-04-20 16:13 | 53.63256 | 10.00254 | 47 ft | 4 kts | 135° |
| 2026-04-20 16:13 | 53.63267 | 10.00241 | 49 ft | 0 kts | 176° |
| 2026-04-20 16:16 | 53.63254 | 10.00242 | 51 ft | 3 kts | 176° |
| 2026-04-20 16:16 | 53.63220 | 10.00246 | 51 ft | 6 kts | 176° |
| 2026-04-20 16:16 | 53.63178 | 10.00251 | 51 ft | 6 kts | 176° |
| 2026-04-20 16:16 | 53.63103 | 10.00260 | 51 ft | 18 kts | 176° |
| 2026-04-20 16:17 | 53.62963 | 10.00148 | 48 ft | 23 kts | 215° |
| 2026-04-20 16:17 | 53.62861 | 10.00020 | 50 ft | 14 kts | 230° |
| 2026-04-20 16:17 | 53.62840 | 9.99984 | 50 ft | 1 kts | 206° |
| 2026-04-20 16:17 | 53.62797 | 9.99950 | 48 ft | 15 kts | 205° |
| 2026-04-20 16:18 | 53.62654 | 9.99814 | 49 ft | 29 kts | 230° |
| 2026-04-20 16:18 | 53.62616 | 9.99567 | 50 ft | 38 kts | 258° |
| 2026-04-20 16:18 | 53.62563 | 9.99066 | 47 ft | 48 kts | 261° |
| 2026-04-20 16:18 | 53.62497 | 9.98507 | 51 ft | 38 kts | 258° |
| 2026-04-20 16:19 | 53.62400 | 9.98033 | 50 ft | 31 kts | 230° |
| 2026-04-20 16:19 | 53.62261 | 9.97759 | 50 ft | 30 kts | 231° |
| 2026-04-20 16:19 | 53.62185 | 9.97472 | 50 ft | 26 kts | 284° |
| 2026-04-20 16:19 | 53.62271 | 9.97351 | 49 ft | 25 kts | 348° |
| 2026-04-20 16:20 | 53.62342 | 9.97417 | 47 ft | 7 kts | 44° |
| 2026-04-20 16:20 | 53.62395 | 9.97511 | 47 ft | 26 kts | 51° |
| 2026-04-20 16:20 | 53.62709 | 9.98153 | 51 ft | 113 kts | 50° |
| 2026-04-20 16:20 | 53.63362 | 9.99458 | 129 ft | 169 kts | 49° |
| 2026-04-20 16:21 | 53.64103 | 10.00985 | 1173 ft | 167 kts | 50° |
| 2026-04-20 16:21 | 53.64837 | 10.02488 | 2274 ft | 165 kts | 51° |
| 2026-04-20 16:21 | 53.65594 | 10.04029 | 2777 ft | 179 kts | 51° |
| 2026-04-20 16:21 | 53.66435 | 10.05742 | 3264 ft | 197 kts | 51° |
| 2026-04-20 16:22 | 53.67312 | 10.07532 | 4110 ft | 200 kts | 50° |
| 2026-04-20 16:22 | 53.68222 | 10.09329 | 4981 ft | 204 kts | 43° |
| 2026-04-20 16:22 | 53.69480 | 10.10447 | 5770 ft | 211 kts | 12° |
| 2026-04-20 16:22 | 53.70963 | 10.10233 | 6494 ft | 228 kts | 341° |
| 2026-04-20 16:23 | 53.72249 | 10.08441 | 6877 ft | 260 kts | 306° |
| 2026-04-20 16:23 | 53.73170 | 10.05673 | 7416 ft | 278 kts | 300° |
| 2026-04-20 16:23 | 53.74046 | 10.02709 | 8245 ft | 285 kts | 296° |
| 2026-04-20 16:23 | 53.74620 | 9.99452 | 9118 ft | 294 kts | 279° |
| 2026-04-20 16:24 | 53.74625 | 9.95968 | 9973 ft | 301 kts | 262° |
| 2026-04-20 16:24 | 53.74063 | 9.92540 | 10717 ft | 309 kts | 248° |
| 2026-04-20 16:24 | 53.73197 | 9.89064 | 11042 ft | 333 kts | 247° |
| 2026-04-20 16:24 | 53.72267 | 9.85389 | 11597 ft | 345 kts | 247° |
| 2026-04-20 16:25 | 53.71311 | 9.81634 | 12366 ft | 350 kts | 247° |
| 2026-04-20 16:25 | 53.70341 | 9.77831 | 13158 ft | 354 kts | 247° |
| 2026-04-20 16:25 | 53.69357 | 9.73990 | 13932 ft | 359 kts | 247° |
| 2026-04-20 16:25 | 53.68359 | 9.70102 | 14638 ft | 362 kts | 247° |
| 2026-04-20 16:26 | 53.67357 | 9.66183 | 15322 ft | 366 kts | 247° |
| 2026-04-20 16:26 | 53.66240 | 9.62305 | 16001 ft | 369 kts | 239° |
| 2026-04-20 16:26 | 53.64705 | 9.58818 | 16656 ft | 372 kts | 227° |
| 2026-04-20 16:26 | 53.62780 | 9.55892 | 17349 ft | 374 kts | 215° |
| 2026-04-20 16:27 | 53.60554 | 9.53620 | 18016 ft | 376 kts | 207° |
| 2026-04-20 16:27 | 53.58246 | 9.51525 | 18651 ft | 378 kts | 207° |
| 2026-04-20 16:27 | 53.55924 | 9.49403 | 19225 ft | 381 kts | 207° |
| 2026-04-20 16:27 | 53.53590 | 9.47265 | 19774 ft | 383 kts | 207° |
| 2026-04-20 16:28 | 53.51242 | 9.45114 | 20345 ft | 386 kts | 207° |
| 2026-04-20 16:28 | 53.48870 | 9.42946 | 20900 ft | 388 kts | 207° |
| 2026-04-20 16:28 | 53.46489 | 9.40776 | 21443 ft | 391 kts | 207° |
| 2026-04-20 16:28 | 53.44093 | 9.38597 | 21995 ft | 393 kts | 207° |
| 2026-04-20 16:29 | 53.41705 | 9.36431 | 22513 ft | 395 kts | 207° |
| 2026-04-20 16:29 | 53.39276 | 9.34232 | 23044 ft | 397 kts | 207° |
| 2026-04-20 16:29 | 53.36825 | 9.32012 | 23560 ft | 400 kts | 207° |
| 2026-04-20 16:29 | 53.34362 | 9.29796 | 24026 ft | 401 kts | 205° |
| 2026-04-20 16:30 | 53.31796 | 9.28033 | 24446 ft | 401 kts | 195° |
| 2026-04-20 16:30 | 53.29066 | 9.26971 | 24845 ft | 402 kts | 188° |
| 2026-04-20 16:30 | 53.26326 | 9.26159 | 25254 ft | 404 kts | 188° |
| 2026-04-20 16:30 | 53.23532 | 9.25332 | 25666 ft | 406 kts | 188° |
| 2026-04-20 16:31 | 53.20757 | 9.24511 | 26059 ft | 408 kts | 188° |
| 2026-04-20 16:31 | 53.17970 | 9.23684 | 26441 ft | 411 kts | 188° |
| 2026-04-20 16:31 | 53.15133 | 9.22842 | 26826 ft | 413 kts | 188° |
| 2026-04-20 16:31 | 53.12302 | 9.22003 | 27212 ft | 415 kts | 188° |
| 2026-04-20 16:32 | 53.09465 | 9.21163 | 27588 ft | 418 kts | 188° |
| 2026-04-20 16:32 | 53.06579 | 9.20308 | 27942 ft | 420 kts | 188° |
| 2026-04-20 16:32 | 53.03683 | 9.19449 | 28313 ft | 423 kts | 188° |
| 2026-04-20 16:32 | 53.00801 | 9.18598 | 28671 ft | 425 kts | 188° |
| 2026-04-20 16:33 | 52.97864 | 9.17730 | 29025 ft | 427 kts | 189° |
| 2026-04-20 16:33 | 52.94999 | 9.16462 | 29359 ft | 431 kts | 198° |
| 2026-04-20 16:33 | 52.92240 | 9.14436 | 29698 ft | 435 kts | 207° |
| 2026-04-20 16:33 | 52.89583 | 9.12079 | 30033 ft | 437 kts | 207° |
| 2026-04-20 16:34 | 52.86876 | 9.09690 | 30333 ft | 440 kts | 207° |
| 2026-04-20 16:34 | 52.84187 | 9.07332 | 30590 ft | 442 kts | 207° |
| 2026-04-20 16:34 | 52.81449 | 9.04945 | 30853 ft | 444 kts | 207° |
| 2026-04-20 16:34 | 52.78732 | 9.02583 | 31103 ft | 446 kts | 207° |
| 2026-04-20 16:35 | 52.75969 | 9.00179 | 31362 ft | 447 kts | 208° |
| 2026-04-20 16:35 | 52.73233 | 8.97802 | 31625 ft | 449 kts | 208° |
| 2026-04-20 16:35 | 52.70458 | 8.95392 | 31982 ft | 448 kts | 208° |
| 2026-04-20 16:35 | 52.67722 | 8.93016 | 32343 ft | 447 kts | 209° |
| 2026-04-20 16:36 | 52.64949 | 8.90609 | 32705 ft | 446 kts | 209° |
| 2026-04-20 16:36 | 52.62232 | 8.88251 | 33057 ft | 446 kts | 209° |
| 2026-04-20 16:36 | 52.59479 | 8.85861 | 33415 ft | 445 kts | 210° |
| 2026-04-20 16:36 | 52.56750 | 8.83495 | 33761 ft | 445 kts | 209° |
| 2026-04-20 16:37 | 52.53995 | 8.81116 | 34117 ft | 444 kts | 209° |
| 2026-04-20 16:37 | 52.51289 | 8.78789 | 34417 ft | 444 kts | 209° |
| 2026-04-20 16:37 | 52.48549 | 8.76436 | 34686 ft | 444 kts | 209° |
| 2026-04-20 16:37 | 52.45798 | 8.74074 | 34942 ft | 444 kts | 209° |
| 2026-04-20 16:38 | 52.43086 | 8.71744 | 35189 ft | 444 kts | 210° |
| 2026-04-20 16:38 | 52.40333 | 8.69384 | 35426 ft | 444 kts | 209° |
| 2026-04-20 16:38 | 52.37579 | 8.67028 | 35672 ft | 444 kts | 210° |
| 2026-04-20 16:38 | 52.34869 | 8.64715 | 35901 ft | 444 kts | 210° |
| 2026-04-20 16:39 | 52.32102 | 8.62358 | 36122 ft | 444 kts | 210° |
| 2026-04-20 16:39 | 52.29406 | 8.60010 | 36353 ft | 443 kts | 213° |
| 2026-04-20 16:39 | 52.26899 | 8.57112 | 36572 ft | 440 kts | 223° |
| 2026-04-20 16:39 | 52.24717 | 8.53608 | 36789 ft | 438 kts | 230° |
| 2026-04-20 16:40 | 52.22680 | 8.49904 | 36998 ft | 438 kts | 230° |
| 2026-04-20 16:40 | 52.20633 | 8.46210 | 37161 ft | 438 kts | 230° |
| 2026-04-20 16:40 | 52.16555 | 8.38912 | 37198 ft | 435 kts | 230° |
| 2026-04-20 16:41 | 52.12483 | 8.31661 | 37200 ft | 435 kts | 230° |
| 2026-04-20 16:41 | 52.08406 | 8.24412 | 37197 ft | 434 kts | 230° |
| 2026-04-20 16:42 | 52.04325 | 8.17167 | 37197 ft | 434 kts | 230° |
| 2026-04-20 16:42 | 52.00241 | 8.09936 | 37211 ft | 434 kts | 230° |
| 2026-04-20 16:43 | 51.96176 | 8.02760 | 37213 ft | 434 kts | 230° |
| 2026-04-20 16:43 | 51.92071 | 7.95545 | 37217 ft | 434 kts | 230° |
| 2026-04-20 16:44 | 51.88002 | 7.88406 | 37220 ft | 434 kts | 230° |
| 2026-04-20 16:44 | 51.83842 | 7.81120 | 37207 ft | 444 kts | 230° |
| 2026-04-20 16:45 | 51.79611 | 7.73742 | 37200 ft | 450 kts | 230° |
| 2026-04-20 16:45 | 51.75340 | 7.66331 | 37197 ft | 450 kts | 230° |
| 2026-04-20 16:46 | 51.70859 | 7.59284 | 37197 ft | 453 kts | 219° |
| 2026-04-20 16:46 | 51.65310 | 7.54346 | 37190 ft | 458 kts | 208° |
| 2026-04-20 16:47 | 51.59549 | 7.49935 | 37189 ft | 458 kts | 209° |
| 2026-04-20 16:47 | 51.53782 | 7.45522 | 37193 ft | 459 kts | 209° |
| 2026-04-20 16:48 | 51.48023 | 7.41109 | 37201 ft | 459 kts | 209° |
| 2026-04-20 16:48 | 51.42248 | 7.36706 | 37198 ft | 459 kts | 209° |
| 2026-04-20 16:49 | 51.36477 | 7.32310 | 37200 ft | 459 kts | 209° |
| 2026-04-20 16:49 | 51.30699 | 7.27941 | 37193 ft | 459 kts | 209° |
| 2026-04-20 16:50 | 51.24926 | 7.23579 | 37192 ft | 459 kts | 209° |
| 2026-04-20 16:50 | 51.19327 | 7.19351 | 37192 ft | 459 kts | 209° |
| 2026-04-20 16:51 | 51.13544 | 7.15001 | 37178 ft | 459 kts | 209° |
| 2026-04-20 16:51 | 51.07773 | 7.10680 | 37177 ft | 459 kts | 209° |
| 2026-04-20 16:52 | 51.01997 | 7.06358 | 37173 ft | 458 kts | 209° |
| 2026-04-20 16:52 | 50.96224 | 7.02055 | 37175 ft | 458 kts | 209° |
| 2026-04-20 16:53 | 50.90454 | 6.97756 | 37173 ft | 458 kts | 209° |
| 2026-04-20 16:53 | 50.84685 | 6.93471 | 37170 ft | 458 kts | 209° |
| 2026-04-20 16:54 | 50.78914 | 6.89209 | 37165 ft | 458 kts | 209° |
| 2026-04-20 16:54 | 50.73150 | 6.84966 | 37165 ft | 457 kts | 209° |
| 2026-04-20 16:55 | 50.67381 | 6.80729 | 37158 ft | 457 kts | 210° |
| 2026-04-20 16:55 | 50.61617 | 6.76493 | 37161 ft | 457 kts | 210° |
| 2026-04-20 16:56 | 50.55852 | 6.72254 | 37151 ft | 457 kts | 210° |
| 2026-04-20 16:56 | 50.50083 | 6.68042 | 37155 ft | 458 kts | 210° |
| 2026-04-20 16:57 | 50.44304 | 6.63839 | 37154 ft | 458 kts | 210° |
| 2026-04-20 16:57 | 50.38522 | 6.59657 | 37147 ft | 458 kts | 210° |
| 2026-04-20 16:58 | 50.32746 | 6.55481 | 37160 ft | 458 kts | 210° |
| 2026-04-20 16:58 | 50.26963 | 6.51305 | 37142 ft | 457 kts | 210° |
| 2026-04-20 16:59 | 50.21183 | 6.47145 | 37143 ft | 457 kts | 210° |
| 2026-04-20 16:59 | 50.15065 | 6.44184 | 37135 ft | 466 kts | 196° |
| 2026-04-20 17:00 | 50.05524 | 6.41208 | 37127 ft | 466 kts | 196° |
| 2026-04-20 17:01 | 49.99159 | 6.39209 | 37127 ft | 467 kts | 196° |
| 2026-04-20 17:01 | 49.92790 | 6.37202 | 37128 ft | 467 kts | 196° |
| 2026-04-20 17:02 | 49.86423 | 6.35203 | 37134 ft | 467 kts | 196° |
| 2026-04-20 17:02 | 49.80046 | 6.33211 | 37133 ft | 467 kts | 196° |
| 2026-04-20 17:03 | 49.73660 | 6.31234 | 37139 ft | 467 kts | 196° |
| 2026-04-20 17:03 | 49.67240 | 6.29492 | 37152 ft | 472 kts | 188° |
| 2026-04-20 17:04 | 49.60683 | 6.30422 | 37143 ft | 484 kts | 168° |
| 2026-04-20 17:04 | 49.54373 | 6.34198 | 37136 ft | 488 kts | 161° |
| 2026-04-20 17:05 | 49.49126 | 6.37588 | 37132 ft | 488 kts | 161° |
| 2026-04-20 17:05 | 49.41857 | 6.42341 | 37125 ft | 489 kts | 160° |
| 2026-04-20 17:06 | 49.36654 | 6.45908 | 37119 ft | 489 kts | 159° |
| 2026-04-20 17:06 | 49.30458 | 6.50190 | 37119 ft | 489 kts | 159° |
| 2026-04-20 17:07 | 49.24240 | 6.54431 | 37120 ft | 488 kts | 160° |
| 2026-04-20 17:07 | 49.18016 | 6.58625 | 37108 ft | 489 kts | 160° |
| 2026-04-20 17:08 | 49.11775 | 6.62813 | 37086 ft | 491 kts | 160° |
| 2026-04-20 17:08 | 49.05504 | 6.67018 | 37092 ft | 493 kts | 160° |
| 2026-04-20 17:09 | 48.99139 | 6.70582 | 37094 ft | 487 kts | 172° |
| 2026-04-20 17:09 | 48.92433 | 6.71387 | 37094 ft | 477 kts | 187° |
| 2026-04-20 17:10 | 48.85786 | 6.71102 | 37103 ft | 478 kts | 186° |
| 2026-04-20 17:10 | 48.79174 | 6.70843 | 37106 ft | 479 kts | 186° |
| 2026-04-20 17:11 | 48.72508 | 6.70583 | 37108 ft | 479 kts | 186° |
| 2026-04-20 17:11 | 48.65841 | 6.70333 | 37108 ft | 480 kts | 186° |
| 2026-04-20 17:12 | 48.59167 | 6.70077 | 37108 ft | 480 kts | 186° |
| 2026-04-20 17:12 | 48.52494 | 6.69813 | 37113 ft | 480 kts | 186° |
| 2026-04-20 17:13 | 48.45817 | 6.69565 | 37108 ft | 480 kts | 186° |
| 2026-04-20 17:13 | 48.39142 | 6.69312 | 37112 ft | 480 kts | 186° |
| 2026-04-20 17:14 | 48.32465 | 6.69053 | 37104 ft | 480 kts | 186° |
| 2026-04-20 17:14 | 48.25792 | 6.68795 | 37101 ft | 480 kts | 186° |
| 2026-04-20 17:15 | 48.19118 | 6.68535 | 37099 ft | 480 kts | 186° |
| 2026-04-20 17:15 | 48.12448 | 6.68287 | 37093 ft | 479 kts | 186° |
| 2026-04-20 17:16 | 48.05788 | 6.68030 | 37081 ft | 478 kts | 186° |
| 2026-04-20 17:16 | 47.99127 | 6.67774 | 37075 ft | 479 kts | 186° |
| 2026-04-20 17:17 | 47.92468 | 6.67516 | 37069 ft | 479 kts | 186° |
| 2026-04-20 17:17 | 47.85808 | 6.67263 | 37065 ft | 479 kts | 186° |
| 2026-04-20 17:18 | 47.79150 | 6.67018 | 37063 ft | 479 kts | 186° |
| 2026-04-20 17:18 | 47.72492 | 6.66766 | 37062 ft | 478 kts | 186° |
| 2026-04-20 17:19 | 47.65830 | 6.66522 | 37061 ft | 479 kts | 186° |
| 2026-04-20 17:19 | 47.59174 | 6.66272 | 37059 ft | 478 kts | 186° |
| 2026-04-20 17:20 | 47.52518 | 6.66026 | 37059 ft | 478 kts | 186° |
| 2026-04-20 17:20 | 47.45855 | 6.65748 | 37059 ft | 476 kts | 189° |
| 2026-04-20 17:21 | 47.39515 | 6.63561 | 37039 ft | 464 kts | 208° |
| 2026-04-20 17:21 | 47.34139 | 6.58623 | 37031 ft | 451 kts | 226° |
| 2026-04-20 17:22 | 47.29369 | 6.52586 | 37033 ft | 453 kts | 225° |
| 2026-04-20 17:22 | 47.24589 | 6.46619 | 37051 ft | 454 kts | 225° |
| 2026-04-20 17:23 | 47.19773 | 6.40621 | 37046 ft | 453 kts | 225° |
| 2026-04-20 17:23 | 47.14962 | 6.34631 | 37045 ft | 453 kts | 225° |
| 2026-04-20 17:24 | 47.10146 | 6.28672 | 37041 ft | 454 kts | 223° |
| 2026-04-20 17:24 | 47.04516 | 6.24256 | 37036 ft | 469 kts | 202° |
| 2026-04-20 17:25 | 46.97986 | 6.22790 | 37027 ft | 479 kts | 190° |
| 2026-04-20 17:25 | 46.91347 | 6.21925 | 37026 ft | 479 kts | 191° |
| 2026-04-20 17:26 | 46.84702 | 6.21032 | 37023 ft | 479 kts | 191° |
| 2026-04-20 17:26 | 46.78056 | 6.20136 | 37060 ft | 480 kts | 191° |
| 2026-04-20 17:27 | 46.71409 | 6.19255 | 37037 ft | 479 kts | 191° |
| 2026-04-20 17:27 | 46.64766 | 6.18380 | 37027 ft | 479 kts | 191° |
| 2026-04-20 17:28 | 46.58128 | 6.17506 | 37015 ft | 479 kts | 191° |
| 2026-04-20 17:28 | 46.51493 | 6.16642 | 37013 ft | 479 kts | 191° |
| 2026-04-20 17:29 | 46.44866 | 6.15774 | 37015 ft | 478 kts | 191° |
| 2026-04-20 17:29 | 46.38245 | 6.14900 | 37001 ft | 478 kts | 192° |
| 2026-04-20 17:30 | 46.31626 | 6.14032 | 37009 ft | 478 kts | 192° |
| 2026-04-20 17:30 | 46.25007 | 6.13163 | 37007 ft | 477 kts | 192° |
| 2026-04-20 17:31 | 46.18456 | 6.11919 | 37007 ft | 473 kts | 195° |
| 2026-04-20 17:31 | 46.11977 | 6.10335 | 37009 ft | 472 kts | 196° |
| 2026-04-20 17:32 | 46.05494 | 6.08764 | 37005 ft | 473 kts | 195° |
| 2026-04-20 17:32 | 45.98995 | 6.07312 | 37005 ft | 473 kts | 195° |
| 2026-04-20 17:33 | 45.92488 | 6.05909 | 37010 ft | 472 kts | 195° |
| 2026-04-20 17:33 | 45.86044 | 6.04505 | 37000 ft | 471 kts | 195° |
| 2026-04-20 17:34 | 45.79567 | 6.03070 | 36997 ft | 471 kts | 195° |
| 2026-04-20 17:34 | 45.73095 | 6.01644 | 36974 ft | 470 kts | 195° |
| 2026-04-20 17:35 | 45.66623 | 6.00226 | 36975 ft | 470 kts | 195° |
| 2026-04-20 17:35 | 45.60156 | 5.98797 | 36974 ft | 470 kts | 195° |
| 2026-04-20 17:36 | 45.53685 | 5.97384 | 36971 ft | 470 kts | 195° |
| 2026-04-20 17:36 | 45.47216 | 5.95964 | 36972 ft | 469 kts | 196° |
| 2026-04-20 17:37 | 45.40825 | 5.94152 | 36982 ft | 467 kts | 199° |
| 2026-04-20 17:37 | 45.34523 | 5.92029 | 36956 ft | 465 kts | 200° |
| 2026-04-20 17:38 | 45.28256 | 5.89957 | 36961 ft | 466 kts | 199° |
| 2026-04-20 17:38 | 45.21917 | 5.87974 | 36959 ft | 467 kts | 199° |
| 2026-04-20 17:39 | 45.15558 | 5.86041 | 36956 ft | 467 kts | 198° |
| 2026-04-20 17:39 | 45.09179 | 5.84088 | 36953 ft | 467 kts | 199° |
| 2026-04-20 17:40 | 45.02843 | 5.82122 | 36949 ft | 467 kts | 199° |
| 2026-04-20 17:40 | 44.96488 | 5.80153 | 36948 ft | 467 kts | 199° |
| 2026-04-20 17:41 | 44.90182 | 5.78219 | 36938 ft | 467 kts | 198° |
| 2026-04-20 17:41 | 44.83829 | 5.76279 | 36933 ft | 467 kts | 198° |
| 2026-04-20 17:42 | 44.77470 | 5.74334 | 36928 ft | 467 kts | 198° |
| 2026-04-20 17:42 | 44.71119 | 5.72386 | 36926 ft | 466 kts | 198° |
| 2026-04-20 17:43 | 44.64770 | 5.70448 | 36922 ft | 466 kts | 198° |
| 2026-04-20 17:43 | 44.58426 | 5.68525 | 36922 ft | 466 kts | 198° |
| 2026-04-20 17:44 | 44.52128 | 5.66625 | 36917 ft | 466 kts | 198° |
| 2026-04-20 17:44 | 44.45764 | 5.64696 | 36910 ft | 465 kts | 198° |
| 2026-04-20 17:45 | 44.39452 | 5.62778 | 36912 ft | 465 kts | 199° |
| 2026-04-20 17:45 | 44.33414 | 5.59845 | 36913 ft | 457 kts | 207° |
| 2026-04-20 17:46 | 44.27496 | 5.56594 | 36914 ft | 457 kts | 207° |
| 2026-04-20 17:46 | 44.21604 | 5.53364 | 36908 ft | 457 kts | 207° |
| 2026-04-20 17:47 | 44.15680 | 5.50138 | 36908 ft | 457 kts | 207° |
| 2026-04-20 17:47 | 44.09757 | 5.46916 | 36913 ft | 456 kts | 207° |
| 2026-04-20 17:48 | 44.03841 | 5.43700 | 36913 ft | 456 kts | 207° |
| 2026-04-20 17:48 | 43.98924 | 5.41032 | 36909 ft | 456 kts | 207° |
| 2026-04-20 17:49 | 43.92049 | 5.37308 | 36901 ft | 456 kts | 207° |
| 2026-04-20 17:49 | 43.86130 | 5.34104 | 36904 ft | 456 kts | 207° |
| 2026-04-20 17:50 | 43.80215 | 5.30909 | 36906 ft | 456 kts | 207° |
| 2026-04-20 17:50 | 43.75279 | 5.28261 | 36905 ft | 456 kts | 207° |
| 2026-04-20 17:51 | 43.69360 | 5.25094 | 36902 ft | 456 kts | 207° |
| 2026-04-20 17:51 | 43.63445 | 5.21914 | 36902 ft | 456 kts | 207° |
| 2026-04-20 17:52 | 43.57523 | 5.18738 | 36900 ft | 456 kts | 207° |
| 2026-04-20 17:52 | 43.51635 | 5.15595 | 36901 ft | 456 kts | 207° |
| 2026-04-20 17:53 | 43.45723 | 5.12446 | 36903 ft | 456 kts | 207° |
| 2026-04-20 17:53 | 43.39820 | 5.09269 | 36902 ft | 453 kts | 210° |
| 2026-04-20 17:54 | 43.34510 | 5.04803 | 36898 ft | 445 kts | 220° |
| 2026-04-20 17:54 | 43.29409 | 4.99966 | 36900 ft | 445 kts | 220° |
| 2026-04-20 17:55 | 43.24321 | 4.95180 | 36904 ft | 446 kts | 220° |
| 2026-04-20 17:55 | 43.19187 | 4.90382 | 36907 ft | 446 kts | 220° |
| 2026-04-20 17:56 | 43.14058 | 4.85576 | 36907 ft | 446 kts | 220° |
| 2026-04-20 17:56 | 43.08928 | 4.80778 | 36910 ft | 447 kts | 219° |
| 2026-04-20 17:57 | 43.03655 | 4.76195 | 36912 ft | 451 kts | 214° |
| 2026-04-20 17:57 | 42.98190 | 4.72057 | 36911 ft | 452 kts | 214° |
| 2026-04-20 17:58 | 42.92693 | 4.67886 | 36916 ft | 452 kts | 214° |
| 2026-04-20 17:58 | 42.87189 | 4.63712 | 36915 ft | 453 kts | 214° |
| 2026-04-20 17:59 | 42.81642 | 4.59534 | 36920 ft | 454 kts | 214° |
| 2026-04-20 17:59 | 42.76138 | 4.55401 | 36920 ft | 454 kts | 214° |
| 2026-04-20 18:00 | 42.70591 | 4.51231 | 36923 ft | 455 kts | 214° |
| 2026-04-20 18:00 | 42.65050 | 4.47064 | 36927 ft | 455 kts | 213° |
| 2026-04-20 18:01 | 42.59527 | 4.42930 | 36928 ft | 455 kts | 213° |
| 2026-04-20 18:01 | 42.53967 | 4.38779 | 36928 ft | 455 kts | 213° |
| 2026-04-20 18:02 | 42.48406 | 4.34635 | 36924 ft | 456 kts | 213° |
| 2026-04-20 18:02 | 42.42843 | 4.30503 | 36938 ft | 456 kts | 213° |
| 2026-04-20 18:03 | 42.37301 | 4.26392 | 36937 ft | 456 kts | 213° |
| 2026-04-20 18:03 | 42.31732 | 4.22257 | 36947 ft | 456 kts | 213° |
| 2026-04-20 18:04 | 42.26203 | 4.18165 | 36940 ft | 456 kts | 213° |
| 2026-04-20 18:04 | 42.20628 | 4.14057 | 36948 ft | 455 kts | 213° |
| 2026-04-20 18:05 | 42.12272 | 4.07918 | 36948 ft | 455 kts | 213° |
| 2026-04-20 18:05 | 42.06745 | 4.03860 | 36949 ft | 455 kts | 213° |
| 2026-04-20 18:06 | 42.01177 | 3.99776 | 36951 ft | 455 kts | 213° |
| 2026-04-20 18:06 | 41.95612 | 3.95708 | 36953 ft | 454 kts | 213° |
| 2026-04-20 18:07 | 41.89650 | 3.92717 | 36955 ft | 464 kts | 195° |
| 2026-04-20 18:07 | 41.83303 | 3.91276 | 36956 ft | 465 kts | 194° |
| 2026-04-20 18:08 | 41.76926 | 3.89812 | 36960 ft | 465 kts | 194° |
| 2026-04-20 18:08 | 41.70555 | 3.88327 | 36963 ft | 464 kts | 194° |
| 2026-04-20 18:09 | 41.64185 | 3.86848 | 36967 ft | 464 kts | 194° |
| 2026-04-20 18:09 | 41.57820 | 3.85392 | 36968 ft | 464 kts | 194° |
| 2026-04-20 18:10 | 41.51449 | 3.83947 | 36968 ft | 464 kts | 194° |
| 2026-04-20 18:10 | 41.45086 | 3.82483 | 36965 ft | 464 kts | 194° |
| 2026-04-20 18:11 | 41.38724 | 3.81029 | 36958 ft | 464 kts | 194° |
| 2026-04-20 18:11 | 41.32358 | 3.79581 | 36960 ft | 464 kts | 194° |
| 2026-04-20 18:12 | 41.25982 | 3.78137 | 36962 ft | 465 kts | 194° |
| 2026-04-20 18:12 | 41.19607 | 3.76687 | 36964 ft | 465 kts | 194° |
| 2026-04-20 18:13 | 41.13355 | 3.74723 | 36962 ft | 458 kts | 206° |
| 2026-04-20 18:13 | 41.07461 | 3.71670 | 36595 ft | 447 kts | 206° |
| 2026-04-20 18:14 | 41.04567 | 3.70177 | 35872 ft | 447 kts | 206° |
| 2026-04-20 18:14 | 41.01664 | 3.68681 | 35066 ft | 449 kts | 206° |
| 2026-04-20 18:14 | 40.98743 | 3.67176 | 34256 ft | 452 kts | 205° |
| 2026-04-20 18:14 | 40.95809 | 3.65659 | 33359 ft | 454 kts | 205° |
| 2026-04-20 18:15 | 40.92850 | 3.64135 | 32427 ft | 456 kts | 205° |
| 2026-04-20 18:15 | 40.89880 | 3.62611 | 31518 ft | 458 kts | 205° |
| 2026-04-20 18:15 | 40.86895 | 3.61081 | 30941 ft | 465 kts | 206° |
| 2026-04-20 18:15 | 40.83890 | 3.59539 | 30411 ft | 472 kts | 206° |
| 2026-04-20 18:16 | 40.80820 | 3.57970 | 29836 ft | 475 kts | 205° |
| 2026-04-20 18:16 | 40.77727 | 3.56393 | 29280 ft | 477 kts | 205° |
| 2026-04-20 18:16 | 40.74618 | 3.54808 | 28754 ft | 479 kts | 205° |
| 2026-04-20 18:16 | 40.71498 | 3.53219 | 28224 ft | 481 kts | 205° |
| 2026-04-20 18:17 | 40.68380 | 3.51632 | 27566 ft | 480 kts | 205° |
| 2026-04-20 18:17 | 40.65262 | 3.50048 | 26334 ft | 481 kts | 205° |
| 2026-04-20 18:17 | 40.62128 | 3.48454 | 25031 ft | 485 kts | 205° |
| 2026-04-20 18:17 | 40.58973 | 3.46851 | 23884 ft | 486 kts | 204° |
| 2026-04-20 18:18 | 40.55844 | 3.45268 | 22965 ft | 479 kts | 204° |
| 2026-04-20 18:18 | 40.52751 | 3.43708 | 22027 ft | 473 kts | 204° |
| 2026-04-20 18:18 | 40.49697 | 3.42169 | 21165 ft | 467 kts | 204° |
| 2026-04-20 18:18 | 40.46681 | 3.40648 | 20303 ft | 461 kts | 204° |
| 2026-04-20 18:19 | 40.43591 | 3.39542 | 19487 ft | 461 kts | 191° |
| 2026-04-20 18:19 | 40.40390 | 3.39437 | 18713 ft | 460 kts | 181° |
| 2026-04-20 18:19 | 40.37210 | 3.39598 | 17887 ft | 455 kts | 180° |
| 2026-04-20 18:19 | 40.34056 | 3.39783 | 17070 ft | 450 kts | 180° |
| 2026-04-20 18:20 | 40.30957 | 3.39976 | 16600 ft | 439 kts | 180° |
| 2026-04-20 18:20 | 40.27973 | 3.40164 | 16294 ft | 423 kts | 180° |
| 2026-04-20 18:20 | 40.25077 | 3.40340 | 15793 ft | 406 kts | 180° |
| 2026-04-20 18:20 | 40.22325 | 3.40506 | 15298 ft | 388 kts | 180° |
| 2026-04-20 18:21 | 40.19681 | 3.40658 | 14819 ft | 379 kts | 180° |
| 2026-04-20 18:21 | 40.17113 | 3.40801 | 14343 ft | 361 kts | 180° |
| 2026-04-20 18:21 | 40.14655 | 3.40937 | 13875 ft | 346 kts | 180° |
| 2026-04-20 18:21 | 40.12289 | 3.41066 | 13359 ft | 336 kts | 180° |
| 2026-04-20 18:22 | 40.09967 | 3.41195 | 12842 ft | 332 kts | 180° |
| 2026-04-20 18:22 | 40.07667 | 3.41323 | 12328 ft | 329 kts | 180° |
| 2026-04-20 18:22 | 40.05377 | 3.41446 | 11823 ft | 330 kts | 179° |
| 2026-04-20 18:22 | 40.03083 | 3.41574 | 11329 ft | 330 kts | 179° |
| 2026-04-20 18:23 | 40.00787 | 3.41740 | 10837 ft | 331 kts | 174° |
| 2026-04-20 18:23 | 39.98591 | 3.42606 | 10356 ft | 333 kts | 153° |
| 2026-04-20 18:23 | 39.96684 | 3.44313 | 9881 ft | 333 kts | 144° |
| 2026-04-20 18:23 | 39.94748 | 3.45961 | 9371 ft | 332 kts | 149° |
| 2026-04-20 18:24 | 39.92783 | 3.47529 | 8857 ft | 331 kts | 150° |
| 2026-04-20 18:24 | 39.90707 | 3.48769 | 8342 ft | 328 kts | 167° |
| 2026-04-20 18:24 | 39.88459 | 3.48920 | 7851 ft | 323 kts | 191° |
| 2026-04-20 18:24 | 39.86388 | 3.47904 | 7364 ft | 318 kts | 214° |
| 2026-04-20 18:25 | 39.84857 | 3.45899 | 7025 ft | 309 kts | 240° |
| 2026-04-20 18:25 | 39.84026 | 3.43390 | 6849 ft | 299 kts | 251° |
| 2026-04-20 18:25 | 39.83364 | 3.40844 | 6560 ft | 296 kts | 252° |
| 2026-04-20 18:25 | 39.82721 | 3.38313 | 6186 ft | 293 kts | 252° |
| 2026-04-20 18:26 | 39.82089 | 3.35804 | 5760 ft | 290 kts | 252° |
| 2026-04-20 18:26 | 39.81473 | 3.33321 | 5331 ft | 287 kts | 252° |
| 2026-04-20 18:26 | 39.80879 | 3.30897 | 5041 ft | 280 kts | 252° |
| 2026-04-20 18:26 | 39.80120 | 3.28633 | 5006 ft | 270 kts | 239° |
| 2026-04-20 18:27 | 39.79149 | 3.26542 | 5011 ft | 270 kts | 239° |
| 2026-04-20 18:27 | 39.78180 | 3.24448 | 5003 ft | 270 kts | 239° |
| 2026-04-20 18:27 | 39.77236 | 3.22414 | 5011 ft | 254 kts | 239° |
| 2026-04-20 18:27 | 39.76354 | 3.20516 | 5007 ft | 238 kts | 239° |
| 2026-04-20 18:28 | 39.75499 | 3.18686 | 5011 ft | 236 kts | 239° |
| 2026-04-20 18:28 | 39.74644 | 3.16876 | 5012 ft | 235 kts | 238° |
| 2026-04-20 18:28 | 39.73793 | 3.15063 | 5009 ft | 235 kts | 239° |
| 2026-04-20 18:28 | 39.73222 | 3.13839 | 5006 ft | 233 kts | 239° |
| 2026-04-20 18:29 | 39.72297 | 3.11857 | 5011 ft | 219 kts | 239° |
| 2026-04-20 18:29 | 39.71515 | 3.10181 | 4780 ft | 216 kts | 239° |
| 2026-04-20 18:29 | 39.70735 | 3.08512 | 4489 ft | 215 kts | 238° |
| 2026-04-20 18:29 | 39.69961 | 3.06856 | 4251 ft | 214 kts | 238° |
| 2026-04-20 18:30 | 39.69191 | 3.05211 | 4063 ft | 212 kts | 238° |
| 2026-04-20 18:30 | 39.68425 | 3.03575 | 4002 ft | 211 kts | 238° |
| 2026-04-20 18:30 | 39.67661 | 3.01942 | 4011 ft | 212 kts | 238° |
| 2026-04-20 18:30 | 39.66894 | 3.00305 | 4024 ft | 210 kts | 238° |
| 2026-04-20 18:31 | 39.66149 | 2.98716 | 3896 ft | 203 kts | 238° |
| 2026-04-20 18:31 | 39.65428 | 2.97178 | 3657 ft | 194 kts | 237° |
| 2026-04-20 18:31 | 39.64738 | 2.95708 | 3422 ft | 189 kts | 238° |
| 2026-04-20 18:31 | 39.64056 | 2.94255 | 3179 ft | 188 kts | 237° |
| 2026-04-20 18:32 | 39.63378 | 2.92811 | 2930 ft | 187 kts | 237° |
| 2026-04-20 18:32 | 39.62702 | 2.91373 | 2689 ft | 186 kts | 237° |
| 2026-04-20 18:32 | 39.62055 | 2.89995 | 2460 ft | 173 kts | 237° |
| 2026-04-20 18:32 | 39.61444 | 2.88696 | 2235 ft | 166 kts | 237° |
| 2026-04-20 18:33 | 39.60866 | 2.87465 | 2035 ft | 152 kts | 236° |
| 2026-04-20 18:33 | 39.60330 | 2.86316 | 1780 ft | 146 kts | 236° |
| 2026-04-20 18:33 | 39.59990 | 2.85584 | 1721 ft | 142 kts | 238° |
| 2026-04-20 18:33 | 39.59297 | 2.84125 | 1550 ft | 141 kts | 235° |
| 2026-04-20 18:34 | 39.58939 | 2.83412 | 1410 ft | 142 kts | 234° |
| 2026-04-20 18:34 | 39.58405 | 2.82345 | 1188 ft | 141 kts | 237° |
| 2026-04-20 18:34 | 39.57918 | 2.81252 | 983 ft | 139 kts | 240° |
| 2026-04-20 18:34 | 39.57451 | 2.80160 | 794 ft | 138 kts | 239° |
| 2026-04-20 18:35 | 39.56924 | 2.79127 | 594 ft | 136 kts | 236° |
| 2026-04-20 18:35 | 39.56415 | 2.78094 | 405 ft | 135 kts | 239° |
| 2026-04-20 18:35 | 39.55937 | 2.77042 | 250 ft | 135 kts | 239° |
| 2026-04-20 18:35 | 39.55461 | 2.75997 | 97 ft | 134 kts | 239° |
| 2026-04-20 18:36 | 39.54998 | 2.75014 | 38 ft | 101 kts | 240° |
| 2026-04-20 18:36 | 39.54821 | 2.74544 | 37 ft | 46 kts | 258° |
| 2026-04-20 18:36 | 39.54801 | 2.74231 | 38 ft | 22 kts | 264° |
| 2026-04-20 18:36 | 39.54764 | 2.74084 | 36 ft | 6 kts | 243° |
| 2026-04-20 18:37 | 39.54744 | 2.74034 | 38 ft | 6 kts | 243° |
| 2026-04-20 18:37 | 39.54736 | 2.73987 | 38 ft | 5 kts | 276° |
| 2026-04-20 18:37 | 39.54750 | 2.73957 | 38 ft | 3 kts | 322° |
| 2026-04-20 18:37 | 39.54755 | 2.73952 | 38 ft | 0 kts | 322° |
| 2026-04-20 18:38 | 39.54759 | 2.73947 | 38 ft | 6 kts | 316° |
| 2026-04-20 18:38 | 39.54750 | 2.73864 | 38 ft | 10 kts | 238° |
| 2026-04-20 18:38 | 39.54709 | 2.73779 | 37 ft | 13 kts | 238° |
| 2026-04-20 18:38 | 39.54660 | 2.73672 | 36 ft | 15 kts | 246° |
| 2026-04-20 18:39 | 39.54705 | 2.73579 | 38 ft | 10 kts | 327° |
| 2026-04-20 18:39 | 39.54759 | 2.73541 | 38 ft | 7 kts | 346° |
| 2026-04-20 18:39 | 39.54792 | 2.73579 | 38 ft | 6 kts | 56° |
| 2026-04-20 18:39 | 39.54797 | 2.73590 | 38 ft | 0 kts | 59° |